Time;durP1;ratioP1;P1;durP2;ratioP2;P2;SDS_P1;SDS_P2;PMS_P1;PMS_P2;Temp;Humidity;BMP_temperature;BMP_pressure;BME280_temperature;BME280_humidity;BME280_pressure;Samples;Min_cycle;Max_cycle;Signal;HPM_P1;HPM_P2
2023/09/29 00:00:17;;;;;;;;;;;;;;;22.26;59.42;101300.50;4765717;29;6094;-68
2023/09/29 00:02:45;;;;;;;;;;;;;;;22.26;59.24;101300.50;4785691;29;2309;-68
2023/09/29 00:05:11;;;;;;;;;;;;;;;22.25;59.36;101293.25;4783437;29;1957;-68
2023/09/29 00:07:37;;;;;;;;;;;;;;;22.24;59.33;101291.75;4782364;29;2425;-68
2023/09/29 00:10:08;;;;;;;;;;;;;;;22.25;59.22;101287.50;4784066;29;2328;-68
2023/09/29 00:12:35;;;;;;;;;;;;;;;22.25;58.92;101287.50;4782621;29;2244;-68
2023/09/29 00:15:05;;;;;;;;;;;;;;;22.24;58.98;101283.09;4781717;29;2138;-68
2023/09/29 00:17:32;;;;;;;;;;;;;;;22.23;59.17;101284.50;4783540;29;1815;-68
2023/09/29 00:20:02;;;;;;;;;;;;;;;22.20;59.03;101280.75;4783883;29;1734;-68
2023/09/29 00:22:29;;;;;;;;;;;;;;;22.18;58.87;101287.16;4783823;29;2188;-68
2023/09/29 00:24:55;;;;;;;;;;;;;;;22.18;58.78;101284.28;4782888;29;2449;-68
2023/09/29 00:27:21;;;;;;;;;;;;;;;22.18;59.13;101278.53;4782676;29;2319;-68
2023/09/29 00:29:48;;;;;;;;;;;;;;;22.18;58.78;101272.75;4783063;29;2273;-68
2023/09/29 00:32:14;;;;;;;;;;;;;;;22.17;59.15;101282.81;4781870;29;6327;-68
2023/09/29 00:34:41;;;;;;;;;;;;;;;22.18;58.86;101283.56;4766527;29;2257;-69
2023/09/29 00:37:08;;;;;;;;;;;;;;;22.16;58.76;101274.81;4783493;29;2162;-68
2023/09/29 00:39:35;;;;;;;;;;;;;;;22.14;58.91;101278.31;4784735;29;2152;-68
2023/09/29 00:42:03;;;;;;;;;;;;;;;22.16;58.92;101284.19;4784043;29;2189;-68
2023/09/29 00:44:30;;;;;;;;;;;;;;;22.14;58.78;101275.44;4782185;29;2145;-69
2023/09/29 00:46:57;;;;;;;;;;;;;;;22.16;58.72;101284.19;4783643;29;1702;-68
2023/09/29 00:49:23;;;;;;;;;;;;;;;22.16;58.82;101272.66;4783466;29;2156;-68
2023/09/29 00:51:50;;;;;;;;;;;;;;;22.15;58.90;101267.53;4782829;29;2139;-69
2023/09/29 00:54:16;;;;;;;;;;;;;;;22.15;58.85;101267.53;4780740;29;2317;-68
2023/09/29 00:56:43;;;;;;;;;;;;;;;22.15;58.61;101268.28;4782596;29;2419;-69
2023/09/29 00:59:10;;;;;;;;;;;;;;;22.14;58.72;101266.78;4783075;29;2090;-68
2023/09/29 01:01:36;;;;;;;;;;;;;;;22.14;58.68;101258.13;4780321;29;6540;-69
2023/09/29 01:04:04;;;;;;;;;;;;;;;22.13;58.90;101250.91;4764196;29;2162;-68
2023/09/29 01:06:31;;;;;;;;;;;;;;;22.13;58.65;101253.78;4781673;29;1645;-68
2023/09/29 01:08:59;;;;;;;;;;;;;;;22.12;58.72;101248.66;4783518;29;2259;-68
2023/09/29 01:11:25;;;;;;;;;;;;;;;22.13;58.82;101248.00;4784263;29;2307;-68
2023/09/29 01:13:52;;;;;;;;;;;;;;;22.12;58.74;101246.50;4784399;29;2208;-68
2023/09/29 01:16:20;;;;;;;;;;;;;;;22.10;58.70;101237.75;4781510;29;2700;-68
2023/09/29 01:18:47;;;;;;;;;;;;;;;22.12;58.67;101240.75;4765355;29;2727;-68
2023/09/29 01:21:13;;;;;;;;;;;;;;;22.13;58.40;101241.50;4780585;29;2236;-69
2023/09/29 01:23:41;;;;;;;;;;;;;;;22.12;58.66;101240.75;4783239;29;1982;-69
2023/09/29 01:26:08;;;;;;;;;;;;;;;22.11;58.41;101245.03;4781495;29;2223;-68
2023/09/29 01:28:35;;;;;;;;;;;;;;;22.11;58.53;101239.25;4779276;29;2275;-68
2023/09/29 01:31:03;;;;;;;;;;;;;;;22.09;59.05;101242.06;4777937;29;6545;-68
2023/09/29 01:33:30;;;;;;;;;;;;;;;22.13;58.62;101248.00;4781244;29;2728;-68
2023/09/29 01:35:56;;;;;;;;;;;;;;;22.12;58.98;101242.88;4782770;29;2073;-68
2023/09/29 01:38:23;;;;;;;;;;;;;;;22.12;59.06;101240.00;4783609;29;2245;-68
2023/09/29 01:40:51;;;;;;;;;;;;;;;22.11;59.09;101239.25;4781083;29;2017;-68
2023/09/29 01:43:18;;;;;;;;;;;;;;;22.13;59.03;101247.28;4781717;29;1931;-68
2023/09/29 01:45:46;;;;;;;;;;;;;;;22.13;59.07;101250.91;4781086;29;2142;-68
2023/09/29 01:48:12;;;;;;;;;;;;;;;22.14;59.07;101246.59;4783580;29;1796;-68
2023/09/29 01:50:40;;;;;;;;;;;;;;;22.12;59.06;101252.28;4765778;29;2203;-68
2023/09/29 01:53:07;;;;;;;;;;;;;;;22.12;59.13;101249.38;4782238;29;2026;-68
2023/09/29 01:55:33;;;;;;;;;;;;;;;22.09;59.24;101242.06;4781583;29;2312;-68
2023/09/29 01:58:00;;;;;;;;;;;;;;;22.09;59.19;101241.31;4766505;29;2117;-68
2023/09/29 02:00:28;;;;;;;;;;;;;;;22.09;59.03;101247.81;4780084;29;6295;-68
2023/09/29 02:02:55;;;;;;;;;;;;;;;22.10;59.32;101237.75;4782297;29;1907;-67
2023/09/29 02:05:23;;;;;;;;;;;;;;;22.07;59.29;101244.84;4779715;29;2325;-68
2023/09/29 02:07:51;;;;;;;;;;;;;;;22.06;59.23;101243.38;4783480;29;2175;-68
2023/09/29 02:10:20;;;;;;;;;;;;;;;22.08;59.27;101246.34;4782818;29;1736;-68
2023/09/29 02:12:48;;;;;;;;;;;;;;;22.06;59.12;101237.59;4765956;29;1870;-68
2023/09/29 02:15:15;;;;;;;;;;;;;;;22.07;58.97;101238.34;4766211;29;2154;-68
2023/09/29 02:17:42;;;;;;;;;;;;;;;22.08;59.03;101245.59;4766215;29;2585;-68
2023/09/29 02:20:15;;;;;;;;;;;;;;;22.09;59.08;101236.28;4781952;29;2208;-69
2023/09/29 02:22:41;;;;;;;;;;;;;;;22.08;59.20;101228.28;4782389;29;1948;-68
2023/09/29 02:25:12;;;;;;;;;;;;;;;22.04;59.04;101228.84;4767261;29;2325;-69
2023/09/29 02:27:40;;;;;;;;;;;;;;;22.04;59.12;101228.13;4783989;29;2108;-68
2023/09/29 02:30:09;;;;;;;;;;;;;;;22.04;58.94;101225.22;4769626;29;6110;-69
2023/09/29 02:32:36;;;;;;;;;;;;;;;22.05;59.15;101226.72;4784569;29;2335;-68
2023/09/29 02:35:04;;;;;;;;;;;;;;;22.02;59.20;101219.38;4785690;29;2265;-68
2023/09/29 02:37:32;;;;;;;;;;;;;;;22.03;59.10;101223.72;4784519;29;1882;-68
2023/09/29 02:39:58;;;;;;;;;;;;;;;22.00;59.11;101220.00;4785516;29;1812;-68
2023/09/29 02:42:25;;;;;;;;;;;;;;;21.99;59.08;101221.41;4785298;29;2216;-68
2023/09/29 02:44:52;;;;;;;;;;;;;;;22.03;59.13;101221.59;4784753;29;2268;-68
2023/09/29 02:47:19;;;;;;;;;;;;;;;22.02;58.85;101223.00;4784065;29;2169;-68
2023/09/29 02:49:45;;;;;;;;;;;;;;;22.02;58.94;101214.34;4767797;29;2300;-68
2023/09/29 02:52:12;;;;;;;;;;;;;;;22.01;58.80;101212.84;4785051;29;2040;-69
2023/09/29 02:54:39;;;;;;;;;;;;;;;22.03;58.75;101221.59;4786216;29;2046;-68
2023/09/29 02:57:07;;;;;;;;;;;;;;;22.03;58.65;101209.31;4768845;29;2550;-69
2023/09/29 02:59:33;;;;;;;;;;;;;;;22.00;58.85;101213.50;4784165;29;2316;-68
2023/09/29 03:02:01;;;;;;;;;;;;;;;22.00;58.88;101216.38;4784611;29;6358;-68
2023/09/29 03:04:31;;;;;;;;;;;;;;;22.03;58.92;101217.97;4783961;29;2391;-68
2023/09/29 03:06:58;;;;;;;;;;;;;;;22.03;59.05;101226.59;4783531;29;2263;-68
2023/09/29 03:09:25;;;;;;;;;;;;;;;22.00;59.05;101222.91;4785613;29;2078;-68
2023/09/29 03:11:51;;;;;;;;;;;;;;;22.03;59.06;101226.59;4784780;29;2205;-69
2023/09/29 03:14:18;;;;;;;;;;;;;;;21.98;58.90;101219.91;4784851;29;2178;-69
2023/09/29 03:16:45;;;;;;;;;;;;;;;21.99;58.86;101218.53;4784154;29;2217;-68
2023/09/29 03:19:11;;;;;;;;;;;;;;;21.99;59.04;101221.41;4785425;29;1771;-68
2023/09/29 03:21:38;;;;;;;;;;;;;;;21.99;58.96;101209.88;4783972;29;2114;-68
2023/09/29 03:24:07;;;;;;;;;;;;;;;21.99;58.77;101215.66;4783562;29;2379;-74
2023/09/29 03:26:34;;;;;;;;;;;;;;;21.99;59.08;101214.88;4783869;29;2311;-73
2023/09/29 03:29:00;;;;;;;;;;;;;;;21.96;58.79;101206.13;4784302;29;2219;-73
2023/09/29 03:31:27;;;;;;;;;;;;;;;21.98;58.79;101208.38;4783258;29;6197;-73
2023/09/29 03:33:53;;;;;;;;;;;;;;;21.96;58.81;101199.63;4766719;29;2223;-73
2023/09/29 03:36:23;;;;;;;;;;;;;;;21.95;59.02;101215.47;4785173;29;2229;-73
2023/09/29 03:38:50;;;;;;;;;;;;;;;21.94;58.91;101208.19;4784148;29;2136;-73
2023/09/29 03:41:16;;;;;;;;;;;;;;;21.95;59.11;101201.03;4785518;29;1760;-74
2023/09/29 03:43:42;;;;;;;;;;;;;;;21.93;58.92;101200.94;4783225;29;2248;-73
2023/09/29 03:46:17;;;;;;;;;;;;;;;21.92;59.10;101208.88;4784937;29;2201;-74
2023/09/29 03:48:46;;;;;;;;;;;;;;;21.94;58.96;101202.44;4784273;29;2123;-74
2023/09/29 03:51:20;;;;;;;;;;;;;;;21.93;59.06;101198.06;4783250;29;2637;-73
2023/09/29 03:53:46;;;;;;;;;;;;;;;21.93;59.04;101200.94;4783968;29;2201;-74
2023/09/29 03:56:13;;;;;;;;;;;;;;;21.92;58.96;101205.22;4782439;29;2379;-72
2023/09/29 03:58:39;;;;;;;;;;;;;;;21.92;58.73;101213.84;4784905;29;2319;-73
2023/09/29 04:01:05;;;;;;;;;;;;;;;21.93;59.14;101206.72;4779436;29;6152;-74
2023/09/29 04:03:33;;;;;;;;;;;;;;;21.91;58.77;101203.75;4783949;29;2154;-74
2023/09/29 04:06:00;;;;;;;;;;;;;;;21.92;58.97;101210.97;4783829;29;2130;-73
2023/09/29 04:08:27;;;;;;;;;;;;;;;21.89;58.90;101212.28;4783717;29;1767;-74
2023/09/29 04:10:53;;;;;;;;;;;;;;;21.90;58.64;101213.78;4782267;29;2396;-73
2023/09/29 04:13:19;;;;;;;;;;;;;;;21.92;58.70;101216.75;4782447;29;2270;-73
2023/09/29 04:15:46;;;;;;;;;;;;;;;21.89;58.70;101213.03;4767445;29;2472;-73
2023/09/29 04:18:12;;;;;;;;;;;;;;;21.88;58.95;101214.44;4782394;29;2383;-73
2023/09/29 04:20:39;;;;;;;;;;;;;;;21.95;58.58;101209.69;4782468;29;2518;-73
2023/09/29 04:23:06;;;;;;;;;;;;;;;21.99;58.55;101200.47;4781975;29;2134;-73
2023/09/29 04:25:32;;;;;;;;;;;;;;;21.96;58.43;101203.25;4784585;29;2065;-73
2023/09/29 04:27:59;;;;;;;;;;;;;;;21.91;58.41;101204.47;4783838;29;2224;-73
2023/09/29 04:30:25;;;;;;;;;;;;;;;21.88;58.81;101205.03;4783083;29;6204;-74
2023/09/29 04:32:54;;;;;;;;;;;;;;;21.86;58.81;101207.84;4783286;29;1874;-74
2023/09/29 04:35:21;;;;;;;;;;;;;;;21.87;58.40;101212.19;4781670;29;2588;-74
2023/09/29 04:37:49;;;;;;;;;;;;;;;21.86;58.43;101213.59;4782426;29;2287;-73
2023/09/29 04:40:16;;;;;;;;;;;;;;;21.88;58.32;101210.81;4782370;29;2454;-74
2023/09/29 04:42:42;;;;;;;;;;;;;;;21.84;58.69;101213.50;4782603;29;2300;-73
2023/09/29 04:45:09;;;;;;;;;;;;;;;21.83;58.66;101209.13;4783206;29;2080;-73
2023/09/29 04:47:35;;;;;;;;;;;;;;;21.83;58.55;101203.34;4781762;29;2235;-73
2023/09/29 04:50:02;;;;;;;;;;;;;;;21.82;58.76;101213.41;4782176;29;1899;-73
2023/09/29 04:52:28;;;;;;;;;;;;;;;21.81;58.57;101209.06;4781072;29;2321;-73
2023/09/29 04:54:54;;;;;;;;;;;;;;;21.94;58.31;101216.84;4782232;29;2357;-73
2023/09/29 04:57:21;;;;;;;;;;;;;;;21.97;58.68;101206.91;4779914;29;2304;-72
2023/09/29 04:59:48;;;;;;;;;;;;;;;21.95;58.37;101212.56;4780731;29;2435;-73
2023/09/29 05:02:14;;;;;;;;;;;;;;;21.93;58.44;101210.34;4780216;29;6106;-74
2023/09/29 05:04:41;;;;;;;;;;;;;;;21.89;58.05;101201.50;4779566;29;2405;-72
2023/09/29 05:07:07;;;;;;;;;;;;;;;21.78;58.19;101201.69;4778530;29;2456;-74
2023/09/29 05:09:34;;;;;;;;;;;;;;;21.64;58.50;101205.41;4781434;29;2281;-73
2023/09/29 05:12:00;;;;;;;;;;;;;;;21.49;58.21;101195.34;4781782;29;2122;-73
2023/09/29 05:14:27;;;;;;;;;;;;;;;21.45;57.98;101211.72;4780171;29;2055;-73
2023/09/29 05:16:54;;;;;;;;;;;;;;;21.42;57.88;101215.91;4782313;29;2166;-73
2023/09/29 05:19:20;;;;;;;;;;;;;;;21.34;57.74;101211.19;4781522;29;2195;-73
2023/09/29 05:21:47;;;;;;;;;;;;;;;21.36;57.76;101212.69;4780963;29;2303;-73
2023/09/29 05:24:13;;;;;;;;;;;;;;;21.32;57.83;101216.09;4781277;29;2350;-73
2023/09/29 05:26:39;;;;;;;;;;;;;;;21.33;57.51;101221.22;4780214;29;2152;-73
2023/09/29 05:29:06;;;;;;;;;;;;;;;21.32;57.81;101211.06;4781973;29;2357;-74
2023/09/29 05:31:32;;;;;;;;;;;;;;;21.31;57.71;101211.75;4781892;29;6424;-75
2023/09/29 05:33:59;;;;;;;;;;;;;;;21.42;57.48;101213.75;4784308;29;1821;-76
2023/09/29 05:36:27;;;;;;;;;;;;;;;18.93;63.65;101230.06;4782718;29;2111;-77
2023/09/29 05:38:53;;;;;;;;;;;;;;;16.95;71.57;101217.19;4781851;29;2430;-78
2023/09/29 05:41:20;;;;;;;;;;;;;;;17.12;72.47;101218.25;4783395;29;2232;-78
2023/09/29 05:43:47;;;;;;;;;;;;;;;16.92;72.80;101212.69;4781247;29;2389;-79
2023/09/29 05:46:13;;;;;;;;;;;;;;;18.17;69.43;101216.97;4781182;29;2482;-78
2023/09/29 05:48:39;;;;;;;;;;;;;;;19.80;63.94;101222.03;4765603;29;2415;-78
2023/09/29 05:51:06;;;;;;;;;;;;;;;20.50;61.64;101214.91;4777617;29;3156;-78
2023/09/29 05:53:33;;;;;;;;;;;;;;;20.86;60.49;101216.03;4781819;29;2627;-84
2023/09/29 05:56:08;;;;;;;;;;;;;;;21.01;59.94;101223.28;4782612;29;2601;-81
2023/09/29 05:58:35;;;;;;;;;;;;;;;21.15;59.69;101228.97;4778442;29;2757;-82
2023/09/29 06:01:12;;;;;;;;;;;;;;;21.26;59.19;101224.47;4784933;29;6543;-82
2023/09/29 06:03:40;;;;;;;;;;;;;;;21.36;59.04;101232.84;4783713;29;2527;-80
2023/09/29 06:06:08;;;;;;;;;;;;;;;21.43;58.91;101228.91;4785783;29;2542;-82
2023/09/29 06:08:34;;;;;;;;;;;;;;;21.47;58.95;101226.22;4771191;29;2233;-82
2023/09/29 06:11:19;;;;;;;;;;;;;;;21.52;58.81;101222.13;4784639;29;2647;-81
2023/09/29 06:13:46;;;;;;;;;;;;;;;21.53;58.61;101224.38;4785231;29;2487;-81
2023/09/29 06:16:12;;;;;;;;;;;;;;;21.59;59.31;101226.03;4784597;29;2467;-81
2023/09/29 06:18:39;;;;;;;;;;;;;;;22.00;58.52;101237.31;4788404;29;3423;-81
2023/09/29 06:21:05;;;;;;;;;;;;;;;22.16;58.59;101223.63;4769693;29;3037;-86
2023/09/29 06:23:32;;;;;;;;;;;;;;;22.16;58.51;101232.28;4788354;29;2712;-82
2023/09/29 06:26:01;;;;;;;;;;;;;;;22.18;58.19;101232.38;4790437;29;2817;-81
2023/09/29 06:28:28;;;;;;;;;;;;;;;22.17;58.35;101239.53;4791709;29;2562;-79
2023/09/29 06:30:57;;;;;;;;;;;;;;;22.14;58.04;101235.06;4785405;29;6201;-80
2023/09/29 06:33:24;;;;;;;;;;;;;;;22.14;58.27;101232.19;4779877;29;2578;-82
2023/09/29 06:35:53;;;;;;;;;;;;;;;22.15;58.23;101232.91;4788997;29;2361;-85
2023/09/29 06:38:20;;;;;;;;;;;;;;;22.16;58.02;101240.94;4788131;29;2234;-80
2023/09/29 06:40:47;;;;;;;;;;;;;;;22.14;58.14;101237.94;4790258;29;2820;-86
2023/09/29 06:43:15;;;;;;;;;;;;;;;22.15;58.13;101251.00;4794687;29;2618;-80
2023/09/29 06:45:41;;;;;;;;;;;;;;;22.18;58.20;101243.16;4799566;29;2298;-86
2023/09/29 06:48:26;;;;;;;;;;;;;;;22.35;58.20;101248.28;4789569;29;2284;-85
2023/09/29 06:50:52;;;;;;;;;;;;;;;22.31;57.99;101245.22;4785957;29;3972;-84
2023/09/29 06:53:19;;;;;;;;;;;;;;;22.40;57.96;101243.44;4790766;29;2890;-85
2023/09/29 06:55:46;;;;;;;;;;;;;;;22.48;57.70;101240.91;4791291;29;2371;-86
2023/09/29 06:58:12;;;;;;;;;;;;;;;22.53;57.70;101241.84;4787418;29;2508;-86
2023/09/29 07:00:38;;;;;;;;;;;;;;;22.52;57.58;101234.59;4791781;29;6340;-81
2023/09/29 07:03:06;;;;;;;;;;;;;;;22.50;57.66;101243.88;4786572;29;2396;-79
2023/09/29 07:05:32;;;;;;;;;;;;;;;22.51;57.77;101251.13;4764808;29;2638;-78
2023/09/29 07:07:59;;;;;;;;;;;;;;;22.51;57.34;101245.38;4785011;29;2427;-78
2023/09/29 07:10:25;;;;;;;;;;;;;;;22.43;57.71;101247.91;4790762;29;2463;-85
2023/09/29 07:12:51;;;;;;;;;;;;;;;22.38;57.79;101244.09;4787199;29;2498;-83
2023/09/29 07:15:18;;;;;;;;;;;;;;;22.38;58.21;101252.03;4785406;29;2331;-82
2023/09/29 07:17:45;;;;;;;;;;;;;;;22.39;58.07;101253.50;4785035;29;2276;-81
2023/09/29 07:20:12;;;;;;;;;;;;;;;22.46;57.95;101245.84;4786427;29;2195;-81
2023/09/29 07:22:39;;;;;;;;;;;;;;;22.51;57.59;101250.41;4786323;29;2418;-82
2023/09/29 07:25:06;;;;;;;;;;;;;;;22.46;57.90;101255.25;4787375;29;2431;-80
2023/09/29 07:27:33;;;;;;;;;;;;;;;22.47;57.79;101250.97;4769182;29;2525;-78
2023/09/29 07:29:59;;;;;;;;;;;;;;;22.44;57.88;101252.28;4780963;29;2427;-78
2023/09/29 07:32:26;;;;;;;;;;;;;;;22.42;58.26;101252.19;4779736;29;6692;-82
2023/09/29 07:34:52;;;;;;;;;;;;;;;22.47;58.18;101255.97;4784195;29;2411;-79
2023/09/29 07:37:19;;;;;;;;;;;;;;;22.47;58.19;101261.75;4782672;29;3915;-82
2023/09/29 07:39:45;;;;;;;;;;;;;;;22.73;57.79;101259.28;4782121;29;4041;-77
2023/09/29 07:42:12;;;;;;;;;;;;;;;22.70;57.76;101257.69;4784980;29;2414;-77
2023/09/29 07:44:39;;;;;;;;;;;;;;;22.75;57.71;101244.94;4783895;29;2406;-77
2023/09/29 07:47:06;;;;;;;;;;;;;;;22.79;57.26;101240.09;4782775;29;2387;-80
2023/09/29 07:49:33;;;;;;;;;;;;;;;22.81;57.31;101242.28;4783863;29;2438;-80
2023/09/29 07:52:00;;;;;;;;;;;;;;;22.80;56.99;101241.56;4784972;29;2328;-80
2023/09/29 07:54:26;;;;;;;;;;;;;;;22.82;57.28;101243.81;4782738;29;2475;-84
2023/09/29 07:56:53;;;;;;;;;;;;;;;22.84;57.12;101243.88;4784205;29;2449;-83
2023/09/29 07:59:19;;;;;;;;;;;;;;;22.86;57.00;101237.44;4785239;29;2387;-82
2023/09/29 08:01:49;;;;;;;;;;;;;;;22.88;57.72;101240.41;4783434;29;6361;-77
2023/09/29 08:04:16;;;;;;;;;;;;;;;22.76;57.26;101240.66;4782494;29;2443;-80
2023/09/29 08:06:44;;;;;;;;;;;;;;;22.55;57.85;101242.66;4782907;29;2368;-84
2023/09/29 08:09:12;;;;;;;;;;;;;;;22.45;58.25;101230.69;4786131;29;2638;-83
2023/09/29 08:11:40;;;;;;;;;;;;;;;22.38;58.50;101235.44;4785494;29;1788;-84
2023/09/29 08:14:07;;;;;;;;;;;;;;;22.37;58.58;101236.09;4785203;29;2203;-85
2023/09/29 08:16:34;;;;;;;;;;;;;;;22.47;58.43;101239.44;4781838;29;3834;-81
2023/09/29 08:19:00;;;;;;;;;;;;;;;22.55;58.18;101239.78;4784429;29;2391;-80
2023/09/29 08:21:27;;;;;;;;;;;;;;;22.59;58.29;101239.97;4777806;29;3868;-83
2023/09/29 08:23:53;;;;;;;;;;;;;;;22.60;57.97;101234.91;4782546;29;2652;-79
2023/09/29 08:26:20;;;;;;;;;;;;;;;22.65;58.25;101244.50;4785683;29;2620;-82
2023/09/29 08:28:46;;;;;;;;;;;;;;;22.65;57.98;101235.84;4782423;29;2578;-81
2023/09/29 08:31:13;;;;;;;;;;;;;;;22.67;58.18;101228.00;4784893;29;6407;-83
2023/09/29 08:33:40;;;;;;;;;;;;;;;22.69;57.86;101236.03;4784732;29;1669;-80
2023/09/29 08:36:16;;;;;;;;;;;;;;;22.73;57.81;101231.16;4785859;29;1794;-82
2023/09/29 08:38:43;;;;;;;;;;;;;;;22.75;57.73;101228.38;4782772;29;2530;-80
2023/09/29 08:41:09;;;;;;;;;;;;;;;22.68;58.05;101235.28;4785458;29;2573;-84
2023/09/29 08:43:36;;;;;;;;;;;;;;;22.83;57.51;101253.19;4764919;29;2782;-84
2023/09/29 08:46:04;;;;;;;;;;;;;;;22.84;57.91;101258.31;4784082;29;2554;-80
2023/09/29 08:48:32;;;;;;;;;;;;;;;22.87;57.75;101262.78;4764164;29;3853;-83
2023/09/29 08:51:02;;;;;;;;;;;;;;;22.94;57.64;101263.78;4782923;29;2277;-79
2023/09/29 08:53:28;;;;;;;;;;;;;;;22.91;57.37;101265.09;4767795;29;2421;-80
2023/09/29 08:55:56;;;;;;;;;;;;;;;22.77;57.75;101265.25;4783361;29;2323;-83
2023/09/29 08:58:23;;;;;;;;;;;;;;;22.82;57.80;101266.91;4784237;29;2562;-81
2023/09/29 09:00:50;;;;;;;;;;;;;;;22.82;57.80;101271.94;4782799;29;6332;-83
2023/09/29 09:03:19;;;;;;;;;;;;;;;22.77;57.60;101274.66;4781793;29;2464;-80
2023/09/29 09:05:45;;;;;;;;;;;;;;;22.83;57.74;101274.16;4782459;29;2450;-86
2023/09/29 09:08:12;;;;;;;;;;;;;;;22.86;57.78;101269.97;4783696;29;2407;-89
2023/09/29 09:10:38;;;;;;;;;;;;;;;22.80;57.85;101269.69;4784935;29;2297;-82
2023/09/29 09:13:05;;;;;;;;;;;;;;;22.79;57.59;101271.09;4784423;29;1712;-86
2023/09/29 09:15:31;;;;;;;;;;;;;;;22.86;57.74;101275.75;4784007;29;1882;-84
2023/09/29 09:17:58;;;;;;;;;;;;;;;22.92;57.81;101278.13;4784942;29;1691;-83
2023/09/29 09:20:25;;;;;;;;;;;;;;;22.97;57.40;101274.75;4785647;29;1706;-85
2023/09/29 09:23:01;;;;;;;;;;;;;;;22.94;57.58;101270.28;4768727;29;1974;-89
2023/09/29 09:25:35;;;;;;;;;;;;;;;22.83;57.53;101279.19;4782674;29;2335;-84
2023/09/29 09:28:03;;;;;;;;;;;;;;;22.81;58.06;101279.84;4781421;29;2332;-76
2023/09/29 09:30:35;;;;;;;;;;;;;;;22.80;57.81;101275.47;4783524;29;6244;-86
2023/09/29 09:33:03;;;;;;;;;;;;;;;22.80;57.81;101284.88;4782764;29;2323;-89
2023/09/29 09:35:29;;;;;;;;;;;;;;;22.82;57.74;101287.13;4784458;29;2582;-83
2023/09/29 09:37:56;;;;;;;;;;;;;;;22.81;57.82;101291.38;4788733;29;1673;-85
2023/09/29 09:40:26;;;;;;;;;;;;;;;22.85;57.82;101277.13;4787131;29;2347;-84
2023/09/29 09:42:53;;;;;;;;;;;;;;;22.86;57.91;101264.19;4769695;29;2815;-79
2023/09/29 09:45:25;;;;;;;;;;;;;;;22.84;57.94;101246.78;4787208;29;1924;-81
2023/09/29 09:47:57;;;;;;;;;;;;;;;22.86;57.73;101267.06;4786793;29;2598;-86
2023/09/29 09:50:26;;;;;;;;;;;;;;;22.85;57.72;101282.91;4788030;29;2602;-82
2023/09/29 09:52:54;;;;;;;;;;;;;;;22.80;58.07;101276.22;4785225;29;2582;-81
2023/09/29 09:55:23;;;;;;;;;;;;;;;22.83;57.86;101274.16;4764698;29;2607;-84
2023/09/29 09:57:50;;;;;;;;;;;;;;;22.85;57.87;101262.69;4786354;29;2590;-83
2023/09/29 10:00:16;;;;;;;;;;;;;;;22.73;58.14;101267.94;4786651;29;6276;-79
2023/09/29 10:02:44;;;;;;;;;;;;;;;22.67;58.24;101267.69;4779787;29;3190;-86
2023/09/29 10:05:22;;;;;;;;;;;;;;;22.86;58.52;101275.75;4768200;29;2644;-81
2023/09/29 10:07:54;;;;;;;;;;;;;;;22.90;58.53;101273.00;4787942;29;2530;-80
2023/09/29 10:10:24;;;;;;;;;;;;;;;22.91;58.32;101270.88;4786460;29;2519;-81
2023/09/29 10:12:56;;;;;;;;;;;;;;;22.95;58.28;101266.03;4783436;29;2665;-79
2023/09/29 10:15:23;;;;;;;;;;;;;;;23.00;57.90;101261.91;4782301;29;2597;-79
2023/09/29 10:17:49;;;;;;;;;;;;;;;23.09;57.93;101259.34;4784303;29;2578;-78
2023/09/29 10:20:19;;;;;;;;;;;;;;;23.03;58.09;101262.00;4787847;29;2287;-77
2023/09/29 10:22:47;;;;;;;;;;;;;;;22.96;58.24;101264.59;4785667;29;2250;-81
2023/09/29 10:25:20;;;;;;;;;;;;;;;23.01;58.36;101268.44;4762806;29;2740;-80
2023/09/29 10:27:49;;;;;;;;;;;;;;;23.03;57.87;101268.53;4783913;29;2484;-84
2023/09/29 10:30:16;;;;;;;;;;;;;;;22.96;58.29;101263.88;4784045;29;6174;-77
2023/09/29 10:32:48;;;;;;;;;;;;;;;22.93;58.56;101265.16;4784247;29;2514;-78
2023/09/29 10:35:19;;;;;;;;;;;;;;;22.94;58.85;101275.34;4786033;29;2550;-78
2023/09/29 10:37:54;;;;;;;;;;;;;;;22.84;59.07;101269.88;4784109;29;2518;-78
2023/09/29 10:40:21;;;;;;;;;;;;;;;22.82;59.06;101281.34;4785947;29;2546;-79
2023/09/29 10:42:48;;;;;;;;;;;;;;;22.79;59.32;101268.19;4768418;29;2552;-79
2023/09/29 10:45:31;;;;;;;;;;;;;;;22.82;59.77;101266.91;4787308;29;2511;-74
2023/09/29 10:48:01;;;;;;;;;;;;;;;23.02;59.29;101260.50;4784754;29;2633;-76
2023/09/29 10:50:28;;;;;;;;;;;;;;;23.12;59.06;101260.94;4779041;29;3912;-80
2023/09/29 10:52:56;;;;;;;;;;;;;;;23.24;58.66;101254.91;4785393;29;3401;-76
2023/09/29 10:55:22;;;;;;;;;;;;;;;23.27;58.28;101244.91;4785741;29;3862;-75
2023/09/29 10:57:49;;;;;;;;;;;;;;;23.34;58.28;101258.22;4784284;29;2380;-75
2023/09/29 11:00:16;;;;;;;;;;;;;;;23.36;57.77;101258.28;4768647;29;6176;-75
2023/09/29 11:02:42;;;;;;;;;;;;;;;23.37;57.67;101242.47;4786665;29;2705;-74
2023/09/29 11:05:09;;;;;;;;;;;;;;;23.40;57.62;101252.69;4785034;29;2870;-74
2023/09/29 11:07:48;;;;;;;;;;;;;;;23.40;57.64;101244.75;4787344;29;1732;-78
2023/09/29 11:10:17;;;;;;;;;;;;;;;23.44;57.69;101257.91;4784178;29;2322;-76
2023/09/29 11:12:47;;;;;;;;;;;;;;;23.46;57.51;101252.19;4786032;29;2277;-76
2023/09/29 11:15:14;;;;;;;;;;;;;;;23.48;57.45;101255.16;4784948;29;2501;-77
2023/09/29 11:17:48;;;;;;;;;;;;;;;23.48;57.50;101252.25;4786285;29;2699;-79
2023/09/29 11:20:25;;;;;;;;;;;;;;;23.48;57.57;101247.25;4769974;29;2371;-79
2023/09/29 11:23:01;;;;;;;;;;;;;;;23.48;57.45;101252.25;4784309;29;2414;-79
2023/09/29 11:25:27;;;;;;;;;;;;;;;23.50;57.39;101243.66;4780745;29;2430;-76
2023/09/29 11:27:54;;;;;;;;;;;;;;;23.52;57.67;101240.84;4782691;29;2843;-74
2023/09/29 11:30:24;;;;;;;;;;;;;;;23.53;57.66;101245.25;4770052;29;6210;-77
2023/09/29 11:32:51;;;;;;;;;;;;;;;23.42;57.89;101244.84;4790396;29;3641;-75
2023/09/29 11:35:18;;;;;;;;;;;;;;;23.38;58.09;101238.88;4791693;29;3879;-78
2023/09/29 11:37:46;;;;;;;;;;;;;;;23.32;58.36;101235.78;4791838;29;2330;-76
2023/09/29 11:40:12;;;;;;;;;;;;;;;23.27;58.58;101231.22;4784782;29;3871;-77
2023/09/29 11:42:39;;;;;;;;;;;;;;;23.25;58.48;101231.16;4791000;29;2558;-76
2023/09/29 11:45:08;;;;;;;;;;;;;;;23.27;58.26;101222.53;4791070;29;2276;-78
2023/09/29 11:47:36;;;;;;;;;;;;;;;23.28;58.63;101224.03;4792640;29;2396;-80
2023/09/29 11:50:03;;;;;;;;;;;;;;;23.27;58.61;101230.47;4795047;29;2800;-79
2023/09/29 11:52:32;;;;;;;;;;;;;;;23.34;58.18;101229.31;4796134;29;2645;-80
2023/09/29 11:54:58;;;;;;;;;;;;;;;23.36;58.21;101230.13;4795016;29;2519;-79
2023/09/29 11:57:24;;;;;;;;;;;;;;;23.37;58.16;101231.63;4798112;29;2582;-81
2023/09/29 11:59:51;;;;;;;;;;;;;;;23.36;58.05;101227.25;4797852;29;2194;-80
2023/09/29 12:02:22;;;;;;;;;;;;;;;23.36;58.29;101221.47;4794806;29;7452;-78
2023/09/29 12:04:49;;;;;;;;;;;;;;;23.33;58.41;101208.34;4790227;29;2625;-80
2023/09/29 12:07:16;;;;;;;;;;;;;;;23.35;58.35;101216.38;4789027;29;2697;-79
2023/09/29 12:09:42;;;;;;;;;;;;;;;23.37;58.76;101208.50;4795382;29;2634;-82
2023/09/29 12:12:09;;;;;;;;;;;;;;;23.40;58.45;101207.19;4797103;29;2320;-79
2023/09/29 12:14:35;;;;;;;;;;;;;;;23.41;58.34;101214.47;4796969;29;2446;-79
2023/09/29 12:17:02;;;;;;;;;;;;;;;23.42;58.33;101204.38;4798676;29;2205;-81
2023/09/29 12:19:28;;;;;;;;;;;;;;;23.42;58.73;101210.16;4799246;29;3522;-79
2023/09/29 12:21:55;;;;;;;;;;;;;;;23.44;58.58;101200.09;4792197;29;3875;-79
2023/09/29 12:24:22;;;;;;;;;;;;;;;23.44;58.26;101197.19;4796373;29;3532;-80
2023/09/29 12:26:48;;;;;;;;;;;;;;;23.40;58.60;101201.41;4794633;29;2657;-77
2023/09/29 12:29:15;;;;;;;;;;;;;;;23.33;59.06;101202.56;4793100;29;3732;-80
2023/09/29 12:31:41;;;;;;;;;;;;;;;23.40;58.56;101201.41;4795845;29;6745;-79
2023/09/29 12:34:08;;;;;;;;;;;;;;;23.43;58.56;101202.22;4794676;29;2744;-78
2023/09/29 12:36:34;;;;;;;;;;;;;;;23.27;59.07;101193.66;4780320;29;3789;-88
2023/09/29 12:39:01;;;;;;;;;;;;;;;23.50;59.33;101182.97;4784490;29;2264;-84
2023/09/29 12:41:27;;;;;;;;;;;;;;;23.61;59.60;101184.84;4781472;29;2342;-86
2023/09/29 12:43:54;;;;;;;;;;;;;;;23.67;59.75;101176.41;4779344;29;2296;-83
2023/09/29 12:46:21;;;;;;;;;;;;;;;23.71;59.47;101181.59;4783455;29;2531;-82
2023/09/29 12:48:49;;;;;;;;;;;;;;;23.67;59.27;101170.63;4782185;29;2260;-83